sensor_id;sensor_type;location;lat;lon;timestamp;temperature;humidity
69324;DHT22;56470;47.350;8.718;2023-07-13T00:00:36;20.19;79.48
69324;DHT22;56470;47.350;8.718;2023-07-13T00:03:02;20.22;79.27
69324;DHT22;56470;47.350;8.718;2023-07-13T00:05:27;20.16;78.86
69324;DHT22;56470;47.350;8.718;2023-07-13T00:07:52;20.12;78.41
69324;DHT22;56470;47.350;8.718;2023-07-13T00:10:19;20.09;78.91
69324;DHT22;56470;47.350;8.718;2023-07-13T00:12:44;20.06;78.65
69324;DHT22;56470;47.350;8.718;2023-07-13T00:15:16;20.04;78.76
69324;DHT22;56470;47.350;8.718;2023-07-13T00:17:54;20.01;78.73
69324;DHT22;56470;47.350;8.718;2023-07-13T00:20:24;19.95;78.57
69324;DHT22;56470;47.350;8.718;2023-07-13T00:22:53;19.85;78.69
69324;DHT22;56470;47.350;8.718;2023-07-13T00:25:23;19.81;78.94
69324;DHT22;56470;47.350;8.718;2023-07-13T00:27:54;19.81;79.04
69324;DHT22;56470;47.350;8.718;2023-07-13T00:30:19;19.81;78.90
69324;DHT22;56470;47.350;8.718;2023-07-13T00:32:45;19.81;79.13
69324;DHT22;56470;47.350;8.718;2023-07-13T00:35:13;19.71;78.91
69324;DHT22;56470;47.350;8.718;2023-07-13T00:37:38;19.68;79.01
69324;DHT22;56470;47.350;8.718;2023-07-13T00:40:06;19.61;79.06
69324;DHT22;56470;47.350;8.718;2023-07-13T00:42:32;19.56;78.94
69324;DHT22;56470;47.350;8.718;2023-07-13T00:47:39;19.36;78.87
69324;DHT22;56470;47.350;8.718;2023-07-13T00:50:07;19.33;79.08
69324;DHT22;56470;47.350;8.718;2023-07-13T00:52:35;19.36;79.22
69324;DHT22;56470;47.350;8.718;2023-07-13T00:55:01;19.45;79.35
69324;DHT22;56470;47.350;8.718;2023-07-13T00:57:28;19.50;79.31
69324;DHT22;56470;47.350;8.718;2023-07-13T00:59:55;19.56;79.33
69324;DHT22;56470;47.350;8.718;2023-07-13T01:02:22;19.58;79.31
69324;DHT22;56470;47.350;8.718;2023-07-13T01:04:49;19.66;79.60
69324;DHT22;56470;47.350;8.718;2023-07-13T01:07:14;19.79;79.87
69324;DHT22;56470;47.350;8.718;2023-07-13T01:09:40;19.89;79.87
69324;DHT22;56470;47.350;8.718;2023-07-13T01:12:06;19.98;79.65
69324;DHT22;56470;47.350;8.718;2023-07-13T01:14:32;20.04;79.45
69324;DHT22;56470;47.350;8.718;2023-07-13T01:16:58;20.04;78.77
69324;DHT22;56470;47.350;8.718;2023-07-13T01:19:38;20.06;79.78
69324;DHT22;56470;47.350;8.718;2023-07-13T01:22:14;20.09;79.64
69324;DHT22;56470;47.350;8.718;2023-07-13T01:24:43;20.06;78.90
69324;DHT22;56470;47.350;8.718;2023-07-13T01:27:09;20.15;79.20
69324;DHT22;56470;47.350;8.718;2023-07-13T01:29:39;20.16;79.01
69324;DHT22;56470;47.350;8.718;2023-07-13T01:32:12;20.18;79.16
69324;DHT22;56470;47.350;8.718;2023-07-13T01:34:38;20.22;78.94
69324;DHT22;56470;47.350;8.718;2023-07-13T01:37:05;20.20;78.89
69324;DHT22;56470;47.350;8.718;2023-07-13T01:39:30;20.19;78.95
69324;DHT22;56470;47.350;8.718;2023-07-13T01:41:57;20.16;78.67
69324;DHT22;56470;47.350;8.718;2023-07-13T01:44:22;20.11;78.57
69324;DHT22;56470;47.350;8.718;2023-07-13T01:46:47;20.06;78.72
69324;DHT22;56470;47.350;8.718;2023-07-13T01:49:13;20.05;78.98
69324;DHT22;56470;47.350;8.718;2023-07-13T01:51:38;20.12;79.37
69324;DHT22;56470;47.350;8.718;2023-07-13T01:54:03;20.13;79.11
69324;DHT22;56470;47.350;8.718;2023-07-13T01:56:29;20.11;78.74
69324;DHT22;56470;47.350;8.718;2023-07-13T01:58:54;20.11;78.86
69324;DHT22;56470;47.350;8.718;2023-07-13T02:01:19;20.05;78.61
69324;DHT22;56470;47.350;8.718;2023-07-13T02:03:45;19.96;78.42
69324;DHT22;56470;47.350;8.718;2023-07-13T02:06:12;19.92;78.74
69324;DHT22;56470;47.350;8.718;2023-07-13T02:08:37;19.95;79.16
69324;DHT22;56470;47.350;8.718;2023-07-13T02:11:03;19.98;78.81
69324;DHT22;56470;47.350;8.718;2023-07-13T02:13:31;19.98;79.19
69324;DHT22;56470;47.350;8.718;2023-07-13T02:15:56;19.98;78.72
69324;DHT22;56470;47.350;8.718;2023-07-13T02:18:21;19.94;78.58
69324;DHT22;56470;47.350;8.718;2023-07-13T02:20:47;19.89;78.65
69324;DHT22;56470;47.350;8.718;2023-07-13T02:23:12;19.81;78.63
69324;DHT22;56470;47.350;8.718;2023-07-13T02:25:37;19.77;78.64
69324;DHT22;56470;47.350;8.718;2023-07-13T02:28:03;19.73;79.02
69324;DHT22;56470;47.350;8.718;2023-07-13T02:30:29;19.79;79.57
69324;DHT22;56470;47.350;8.718;2023-07-13T02:32:55;19.88;79.83
69324;DHT22;56470;47.350;8.718;2023-07-13T02:35:21;19.86;79.08
69324;DHT22;56470;47.350;8.718;2023-07-13T02:37:46;19.82;78.61
69324;DHT22;56470;47.350;8.718;2023-07-13T02:40:12;19.70;78.77
69324;DHT22;56470;47.350;8.718;2023-07-13T02:42:37;19.57;78.89
69324;DHT22;56470;47.350;8.718;2023-07-13T02:45:03;19.34;79.20
69324;DHT22;56470;47.350;8.718;2023-07-13T02:47:28;19.30;79.68
69324;DHT22;56470;47.350;8.718;2023-07-13T02:49:56;19.24;79.65
69324;DHT22;56470;47.350;8.718;2023-07-13T02:52:21;19.26;80.05
69324;DHT22;56470;47.350;8.718;2023-07-13T02:54:47;19.34;80.23
69324;DHT22;56470;47.350;8.718;2023-07-13T02:57:12;19.37;79.92
69324;DHT22;56470;47.350;8.718;2023-07-13T02:59:37;19.33;79.95
69324;DHT22;56470;47.350;8.718;2023-07-13T03:02:03;19.30;80.07
69324;DHT22;56470;47.350;8.718;2023-07-13T03:04:29;19.31;79.76
69324;DHT22;56470;47.350;8.718;2023-07-13T03:06:54;19.34;80.55
69324;DHT22;56470;47.350;8.718;2023-07-13T03:09:23;19.46;80.74
69324;DHT22;56470;47.350;8.718;2023-07-13T03:11:49;19.56;80.53
69324;DHT22;56470;47.350;8.718;2023-07-13T03:14:14;19.56;80.14
69324;DHT22;56470;47.350;8.718;2023-07-13T03:16:39;19.47;79.82
69324;DHT22;56470;47.350;8.718;2023-07-13T03:19:05;19.40;79.64
69324;DHT22;56470;47.350;8.718;2023-07-13T03:21:31;19.33;79.77
69324;DHT22;56470;47.350;8.718;2023-07-13T03:23:56;19.30;79.74
69324;DHT22;56470;47.350;8.718;2023-07-13T03:26:21;19.24;79.98
69324;DHT22;56470;47.350;8.718;2023-07-13T03:28:47;19.27;79.99
69324;DHT22;56470;47.350;8.718;2023-07-13T03:31:16;19.24;79.98
69324;DHT22;56470;47.350;8.718;2023-07-13T03:33:42;19.23;80.03
69324;DHT22;56470;47.350;8.718;2023-07-13T03:36:13;19.22;80.12
69324;DHT22;56470;47.350;8.718;2023-07-13T03:38:38;19.18;80.18
69324;DHT22;56470;47.350;8.718;2023-07-13T03:41:04;19.13;80.29
69324;DHT22;56470;47.350;8.718;2023-07-13T03:43:29;19.13;80.42
69324;DHT22;56470;47.350;8.718;2023-07-13T03:45:55;19.16;80.56
69324;DHT22;56470;47.350;8.718;2023-07-13T03:48:20;19.24;80.69
69324;DHT22;56470;47.350;8.718;2023-07-13T03:50:47;19.30;80.46
69324;DHT22;56470;47.350;8.718;2023-07-13T03:53:12;19.37;80.65
69324;DHT22;56470;47.350;8.718;2023-07-13T03:55:38;19.41;80.51
69324;DHT22;56470;47.350;8.718;2023-07-13T03:58:32;19.49;81.95
69324;DHT22;56470;47.350;8.718;2023-07-13T04:00:58;19.53;80.40
69324;DHT22;56470;47.350;8.718;2023-07-13T04:03:24;19.56;80.43
69324;DHT22;56470;47.350;8.718;2023-07-13T04:05:50;19.61;80.43
69324;DHT22;56470;47.350;8.718;2023-07-13T04:08:15;19.58;80.19
69324;DHT22;56470;47.350;8.718;2023-07-13T04:10:41;19.54;80.00
69324;DHT22;56470;47.350;8.718;2023-07-13T04:13:06;19.56;80.37
69324;DHT22;56470;47.350;8.718;2023-07-13T04:15:33;19.64;80.22
69324;DHT22;56470;47.350;8.718;2023-07-13T04:17:58;19.63;80.14
69324;DHT22;56470;47.350;8.718;2023-07-13T04:20:25;19.66;80.49
69324;DHT22;56470;47.350;8.718;2023-07-13T04:22:51;19.71;80.50
69324;DHT22;56470;47.350;8.718;2023-07-13T04:25:18;19.77;80.52
69324;DHT22;56470;47.350;8.718;2023-07-13T04:27:44;19.82;80.49
69324;DHT22;56470;47.350;8.718;2023-07-13T04:30:09;19.82;80.13
69324;DHT22;56470;47.350;8.718;2023-07-13T04:32:34;19.81;80.05
69324;DHT22;56470;47.350;8.718;2023-07-13T04:35:00;19.84;80.32
69324;DHT22;56470;47.350;8.718;2023-07-13T04:37:26;19.85;80.30
69324;DHT22;56470;47.350;8.718;2023-07-13T04:39:52;19.88;80.27
69324;DHT22;56470;47.350;8.718;2023-07-13T04:42:17;19.85;80.13
69324;DHT22;56470;47.350;8.718;2023-07-13T04:44:50;19.85;80.30
69324;DHT22;56470;47.350;8.718;2023-07-13T04:47:16;19.88;80.60
69324;DHT22;56470;47.350;8.718;2023-07-13T04:49:41;19.92;80.88
69324;DHT22;56470;47.350;8.718;2023-07-13T04:52:07;19.96;80.95
69324;DHT22;56470;47.350;8.718;2023-07-13T04:54:33;20.04;80.54
69324;DHT22;56470;47.350;8.718;2023-07-13T04:56:59;20.05;80.30
69324;DHT22;56470;47.350;8.718;2023-07-13T04:59:24;20.04;80.33
69324;DHT22;56470;47.350;8.718;2023-07-13T05:01:50;20.05;80.36
69324;DHT22;56470;47.350;8.718;2023-07-13T05:04:15;20.05;80.21
69324;DHT22;56470;47.350;8.718;2023-07-13T05:06:40;20.04;80.31
69324;DHT22;56470;47.350;8.718;2023-07-13T05:09:06;20.04;80.35
69324;DHT22;56470;47.350;8.718;2023-07-13T05:11:32;19.99;80.10
69324;DHT22;56470;47.350;8.718;2023-07-13T05:13:58;19.98;79.95
69324;DHT22;56470;47.350;8.718;2023-07-13T05:16:23;19.92;79.74
69324;DHT22;56470;47.350;8.718;2023-07-13T05:18:49;19.95;80.45
69324;DHT22;56470;47.350;8.718;2023-07-13T05:21:14;19.96;80.48
69324;DHT22;56470;47.350;8.718;2023-07-13T05:23:40;20.02;80.38
69324;DHT22;56470;47.350;8.718;2023-07-13T05:26:09;20.02;80.30
69324;DHT22;56470;47.350;8.718;2023-07-13T05:28:37;20.08;80.60
69324;DHT22;56470;47.350;8.718;2023-07-13T05:31:03;20.11;80.68
69324;DHT22;56470;47.350;8.718;2023-07-13T05:33:29;20.16;80.61
69324;DHT22;56470;47.350;8.718;2023-07-13T05:35:54;20.12;80.57
69324;DHT22;56470;47.350;8.718;2023-07-13T05:38:20;20.11;80.05
69324;DHT22;56470;47.350;8.718;2023-07-13T05:40:46;20.09;80.26
69324;DHT22;56470;47.350;8.718;2023-07-13T05:43:12;20.09;80.25
69324;DHT22;56470;47.350;8.718;2023-07-13T05:45:38;20.09;80.22
69324;DHT22;56470;47.350;8.718;2023-07-13T05:48:03;20.11;80.56
69324;DHT22;56470;47.350;8.718;2023-07-13T05:50:28;20.15;80.63
69324;DHT22;56470;47.350;8.718;2023-07-13T05:52:54;20.16;80.77
69324;DHT22;56470;47.350;8.718;2023-07-13T05:55:19;20.19;80.93
69324;DHT22;56470;47.350;8.718;2023-07-13T05:57:45;20.20;80.51
69324;DHT22;56470;47.350;8.718;2023-07-13T06:00:11;20.23;80.41
69324;DHT22;56470;47.350;8.718;2023-07-13T06:02:36;20.19;79.92
69324;DHT22;56470;47.350;8.718;2023-07-13T06:05:02;20.15;80.05
69324;DHT22;56470;47.350;8.718;2023-07-13T06:07:27;20.11;80.13
69324;DHT22;56470;47.350;8.718;2023-07-13T06:09:53;20.13;79.97
69324;DHT22;56470;47.350;8.718;2023-07-13T06:12:18;20.08;80.30
69324;DHT22;56470;47.350;8.718;2023-07-13T06:14:43;20.06;80.42
69324;DHT22;56470;47.350;8.718;2023-07-13T06:17:09;20.05;80.31
69324;DHT22;56470;47.350;8.718;2023-07-13T06:19:34;19.99;80.28
69324;DHT22;56470;47.350;8.718;2023-07-13T06:22:03;19.89;80.31
69324;DHT22;56470;47.350;8.718;2023-07-13T06:24:28;19.74;80.32
69324;DHT22;56470;47.350;8.718;2023-07-13T06:26:53;19.70;80.79
69324;DHT22;56470;47.350;8.718;2023-07-13T06:29:19;19.66;80.73
69324;DHT22;56470;47.350;8.718;2023-07-13T06:31:44;19.61;80.99
69324;DHT22;56470;47.350;8.718;2023-07-13T06:34:10;19.57;81.17
69324;DHT22;56470;47.350;8.718;2023-07-13T06:36:35;19.57;81.34
69324;DHT22;56470;47.350;8.718;2023-07-13T06:39:02;19.54;81.12
69324;DHT22;56470;47.350;8.718;2023-07-13T06:41:27;19.47;81.08
69324;DHT22;56470;47.350;8.718;2023-07-13T06:43:52;19.37;81.22
69324;DHT22;56470;47.350;8.718;2023-07-13T06:46:21;19.30;81.38
69324;DHT22;56470;47.350;8.718;2023-07-13T06:48:47;19.27;81.60
69324;DHT22;56470;47.350;8.718;2023-07-13T06:51:12;19.26;81.76
69324;DHT22;56470;47.350;8.718;2023-07-13T06:53:38;19.23;82.09
69324;DHT22;56470;47.350;8.718;2023-07-13T06:56:03;19.27;82.30
69324;DHT22;56470;47.350;8.718;2023-07-13T06:58:29;19.29;82.22
69324;DHT22;56470;47.350;8.718;2023-07-13T07:00:54;19.31;82.37
69324;DHT22;56470;47.350;8.718;2023-07-13T07:03:23;19.39;82.27
69324;DHT22;56470;47.350;8.718;2023-07-13T07:05:48;19.41;82.37
69324;DHT22;56470;47.350;8.718;2023-07-13T07:08:14;19.40;82.30
69324;DHT22;56470;47.350;8.718;2023-07-13T07:10:40;19.45;82.40
69324;DHT22;56470;47.350;8.718;2023-07-13T07:13:05;19.45;82.29
69324;DHT22;56470;47.350;8.718;2023-07-13T07:15:31;19.39;82.44
69324;DHT22;56470;47.350;8.718;2023-07-13T07:17:56;19.31;82.31
69324;DHT22;56470;47.350;8.718;2023-07-13T07:20:21;19.19;82.13
69324;DHT22;56470;47.350;8.718;2023-07-13T07:22:47;19.18;82.17
69324;DHT22;56470;47.350;8.718;2023-07-13T07:25:13;19.22;82.18
69324;DHT22;56470;47.350;8.718;2023-07-13T07:27:38;19.20;81.96
69324;DHT22;56470;47.350;8.718;2023-07-13T07:30:05;19.23;81.93
69324;DHT22;56470;47.350;8.718;2023-07-13T07:32:31;19.23;81.65
69324;DHT22;56470;47.350;8.718;2023-07-13T07:35:00;19.20;81.51
69324;DHT22;56470;47.350;8.718;2023-07-13T07:37:26;19.24;81.48
69324;DHT22;56470;47.350;8.718;2023-07-13T07:39:51;19.30;81.55
69324;DHT22;56470;47.350;8.718;2023-07-13T07:42:17;19.36;81.78
69324;DHT22;56470;47.350;8.718;2023-07-13T07:44:42;19.47;81.90
69324;DHT22;56470;47.350;8.718;2023-07-13T07:47:08;19.57;81.72
69324;DHT22;56470;47.350;8.718;2023-07-13T07:49:35;19.71;81.66
69324;DHT22;56470;47.350;8.718;2023-07-13T07:52:00;19.79;81.56
69324;DHT22;56470;47.350;8.718;2023-07-13T07:54:26;19.86;81.28
69324;DHT22;56470;47.350;8.718;2023-07-13T07:56:52;19.98;81.09
69324;DHT22;56470;47.350;8.718;2023-07-13T07:59:18;20.06;80.40
69324;DHT22;56470;47.350;8.718;2023-07-13T08:01:44;20.20;80.24
69324;DHT22;56470;47.350;8.718;2023-07-13T08:04:11;20.36;79.77
69324;DHT22;56470;47.350;8.718;2023-07-13T08:06:36;20.43;78.56
69324;DHT22;56470;47.350;8.718;2023-07-13T08:09:02;20.50;78.03
69324;DHT22;56470;47.350;8.718;2023-07-13T08:11:29;20.56;78.05
69324;DHT22;56470;47.350;8.718;2023-07-13T08:13:54;20.68;78.01
69324;DHT22;56470;47.350;8.718;2023-07-13T08:16:19;20.81;77.93
69324;DHT22;56470;47.350;8.718;2023-07-13T08:18:45;20.88;77.67
69324;DHT22;56470;47.350;8.718;2023-07-13T08:21:10;20.95;77.42
69324;DHT22;56470;47.350;8.718;2023-07-13T08:23:36;21.01;77.06
69324;DHT22;56470;47.350;8.718;2023-07-13T08:26:02;21.05;76.65
69324;DHT22;56470;47.350;8.718;2023-07-13T08:28:28;21.08;76.31
69324;DHT22;56470;47.350;8.718;2023-07-13T08:30:54;21.10;76.47
69324;DHT22;56470;47.350;8.718;2023-07-13T08:33:20;21.16;75.84
69324;DHT22;56470;47.350;8.718;2023-07-13T08:35:47;21.19;76.09
69324;DHT22;56470;47.350;8.718;2023-07-13T08:38:13;21.32;75.97
69324;DHT22;56470;47.350;8.718;2023-07-13T08:40:39;21.49;75.61
69324;DHT22;56470;47.350;8.718;2023-07-13T08:43:06;21.70;74.69
69324;DHT22;56470;47.350;8.718;2023-07-13T08:45:43;21.95;73.95
69324;DHT22;56470;47.350;8.718;2023-07-13T08:48:21;22.17;73.42
69324;DHT22;56470;47.350;8.718;2023-07-13T08:50:55;22.39;73.00
69324;DHT22;56470;47.350;8.718;2023-07-13T08:53:24;22.51;71.59
69324;DHT22;56470;47.350;8.718;2023-07-13T08:55:57;22.70;70.23
69324;DHT22;56470;47.350;8.718;2023-07-13T08:58:25;22.79;70.25
69324;DHT22;56470;47.350;8.718;2023-07-13T09:04:21;22.77;69.34
69324;DHT22;56470;47.350;8.718;2023-07-13T09:09:26;22.77;69.57
69324;DHT22;56470;47.350;8.718;2023-07-13T09:12:07;22.83;68.81
69324;DHT22;56470;47.350;8.718;2023-07-13T09:17:03;22.90;68.22
69324;DHT22;56470;47.350;8.718;2023-07-13T09:19:31;22.94;68.13
69324;DHT22;56470;47.350;8.718;2023-07-13T09:22:03;23.01;68.47
69324;DHT22;56470;47.350;8.718;2023-07-13T09:24:39;23.09;67.64
69324;DHT22;56470;47.350;8.718;2023-07-13T09:27:37;23.09;68.71
69324;DHT22;56470;47.350;8.718;2023-07-13T09:30:33;23.15;68.94
69324;DHT22;56470;47.350;8.718;2023-07-13T09:32:59;23.16;67.80
69324;DHT22;56470;47.350;8.718;2023-07-13T09:35:29;23.16;67.71
69324;DHT22;56470;47.350;8.718;2023-07-13T09:38:01;23.12;66.22
69324;DHT22;56470;47.350;8.718;2023-07-13T09:40:39;23.01;67.07
69324;DHT22;56470;47.350;8.718;2023-07-13T09:43:08;22.98;67.00
69324;DHT22;56470;47.350;8.718;2023-07-13T09:45:36;22.95;67.52
69324;DHT22;56470;47.350;8.718;2023-07-13T09:48:07;22.96;67.32
69324;DHT22;56470;47.350;8.718;2023-07-13T09:50:35;22.92;67.08
69324;DHT22;56470;47.350;8.718;2023-07-13T09:53:02;22.88;67.14
69324;DHT22;56470;47.350;8.718;2023-07-13T09:55:38;22.85;68.33
69324;DHT22;56470;47.350;8.718;2023-07-13T10:00:35;22.81;67.34
69324;DHT22;56470;47.350;8.718;2023-07-13T10:05:43;22.70;66.07
69324;DHT22;56470;47.350;8.718;2023-07-13T10:08:25;22.57;67.56
69324;DHT22;56470;47.350;8.718;2023-07-13T10:10:58;22.51;67.17
69324;DHT22;56470;47.350;8.718;2023-07-13T10:16:14;22.20;66.66
69324;DHT22;56470;47.350;8.718;2023-07-13T10:18:47;22.15;67.47
69324;DHT22;56470;47.350;8.718;2023-07-13T10:21:21;22.16;67.32
69324;DHT22;56470;47.350;8.718;2023-07-13T10:23:51;22.17;67.92
69324;DHT22;56470;47.350;8.718;2023-07-13T10:26:25;22.20;67.59
69324;DHT22;56470;47.350;8.718;2023-07-13T10:28:54;22.13;67.08
69324;DHT22;56470;47.350;8.718;2023-07-13T10:31:21;22.15;67.37
69324;DHT22;56470;47.350;8.718;2023-07-13T10:33:47;22.15;67.50
69324;DHT22;56470;47.350;8.718;2023-07-13T10:36:27;22.09;68.09
69324;DHT22;56470;47.350;8.718;2023-07-13T10:38:54;22.09;67.50
69324;DHT22;56470;47.350;8.718;2023-07-13T10:41:22;22.10;67.63
69324;DHT22;56470;47.350;8.718;2023-07-13T10:43:54;22.09;67.32
69324;DHT22;56470;47.350;8.718;2023-07-13T10:46:23;22.12;67.72
69324;DHT22;56470;47.350;8.718;2023-07-13T10:49:01;22.19;67.60
69324;DHT22;56470;47.350;8.718;2023-07-13T10:51:28;22.26;67.68
69324;DHT22;56470;47.350;8.718;2023-07-13T10:57:33;22.33;66.92
69324;DHT22;56470;47.350;8.718;2023-07-13T10:59:34;22.35;66.75
69324;DHT22;56470;47.350;8.718;2023-07-13T11:02:15;22.32;67.53
69324;DHT22;56470;47.350;8.718;2023-07-13T11:04:47;22.36;68.00
69324;DHT22;56470;47.350;8.718;2023-07-13T11:07:28;22.40;67.70
69324;DHT22;56470;47.350;8.718;2023-07-13T11:09:56;22.53;67.20
69324;DHT22;56470;47.350;8.718;2023-07-13T11:17:46;22.79;69.27
69324;DHT22;56470;47.350;8.718;2023-07-13T11:23:08;22.92;65.49
69324;DHT22;56470;47.350;8.718;2023-07-13T11:25:35;22.99;65.33
69324;DHT22;56470;47.350;8.718;2023-07-13T11:33:21;23.01;64.37
69324;DHT22;56470;47.350;8.718;2023-07-13T11:36:00;23.11;65.29
69324;DHT22;56470;47.350;8.718;2023-07-13T11:38:36;23.18;65.58
69324;DHT22;56470;47.350;8.718;2023-07-13T11:41:25;23.29;66.93
69324;DHT22;56470;47.350;8.718;2023-07-13T11:44:14;23.34;63.74
69324;DHT22;56470;47.350;8.718;2023-07-13T11:46:45;23.32;63.62
69324;DHT22;56470;47.350;8.718;2023-07-13T11:49:17;23.32;63.86
69324;DHT22;56470;47.350;8.718;2023-07-13T11:51:43;23.34;64.11
69324;DHT22;56470;47.350;8.718;2023-07-13T11:54:41;23.34;63.98
69324;DHT22;56470;47.350;8.718;2023-07-13T11:59:52;23.26;63.92
69324;DHT22;56470;47.350;8.718;2023-07-13T12:02:33;23.33;64.84
69324;DHT22;56470;47.350;8.718;2023-07-13T12:05:00;23.39;63.75
69324;DHT22;56470;47.350;8.718;2023-07-13T12:07:29;23.47;63.88
69324;DHT22;56470;47.350;8.718;2023-07-13T12:10:26;23.49;63.58
69324;DHT22;56470;47.350;8.718;2023-07-13T12:12:58;23.51;63.38
69324;DHT22;56470;47.350;8.718;2023-07-13T12:15:29;23.47;63.14
69324;DHT22;56470;47.350;8.718;2023-07-13T12:17:56;23.43;63.16
69324;DHT22;56470;47.350;8.718;2023-07-13T12:20:26;23.38;63.04
69324;DHT22;56470;47.350;8.718;2023-07-13T12:22:52;23.34;63.47
69324;DHT22;56470;47.350;8.718;2023-07-13T12:25:19;23.40;63.83
69324;DHT22;56470;47.350;8.718;2023-07-13T12:27:49;23.43;63.19
69324;DHT22;56470;47.350;8.718;2023-07-13T12:30:31;23.39;61.40
69324;DHT22;56470;47.350;8.718;2023-07-13T12:33:11;23.38;62.75
69324;DHT22;56470;47.350;8.718;2023-07-13T12:35:44;23.39;63.19
69324;DHT22;56470;47.350;8.718;2023-07-13T12:38:11;23.40;63.27
69324;DHT22;56470;47.350;8.718;2023-07-13T12:40:37;23.46;62.91
69324;DHT22;56470;47.350;8.718;2023-07-13T12:43:03;23.43;62.48
69324;DHT22;56470;47.350;8.718;2023-07-13T12:45:30;23.40;62.66
69324;DHT22;56470;47.350;8.718;2023-07-13T12:47:57;23.51;62.93
69324;DHT22;56470;47.350;8.718;2023-07-13T12:50:30;23.53;62.82
69324;DHT22;56470;47.350;8.718;2023-07-13T12:53:01;23.56;62.58
69324;DHT22;56470;47.350;8.718;2023-07-13T12:55:29;23.54;62.64
69324;DHT22;56470;47.350;8.718;2023-07-13T12:57:58;23.40;62.25
69324;DHT22;56470;47.350;8.718;2023-07-13T13:02:54;23.33;63.32
69324;DHT22;56470;47.350;8.718;2023-07-13T13:05:21;23.34;63.38
69324;DHT22;56470;47.350;8.718;2023-07-13T13:07:49;23.33;63.13
69324;DHT22;56470;47.350;8.718;2023-07-13T13:10:14;23.23;63.07
69324;DHT22;56470;47.350;8.718;2023-07-13T13:12:40;23.15;63.28
69324;DHT22;56470;47.350;8.718;2023-07-13T13:15:09;23.06;63.37
69324;DHT22;56470;47.350;8.718;2023-07-13T13:17:37;23.06;63.54
69324;DHT22;56470;47.350;8.718;2023-07-13T13:20:15;23.15;63.75
69324;DHT22;56470;47.350;8.718;2023-07-13T13:22:41;23.24;63.22
69324;DHT22;56470;47.350;8.718;2023-07-13T13:25:12;23.26;62.85
69324;DHT22;56470;47.350;8.718;2023-07-13T13:27:40;23.29;62.76
69324;DHT22;56470;47.350;8.718;2023-07-13T13:30:13;23.32;62.34
69324;DHT22;56470;47.350;8.718;2023-07-13T13:32:40;23.33;62.89
69324;DHT22;56470;47.350;8.718;2023-07-13T13:35:07;23.34;63.11
69324;DHT22;56470;47.350;8.718;2023-07-13T13:37:37;23.32;62.63
69324;DHT22;56470;47.350;8.718;2023-07-13T13:40:02;23.30;62.73
69324;DHT22;56470;47.350;8.718;2023-07-13T13:42:30;23.30;62.59
69324;DHT22;56470;47.350;8.718;2023-07-13T13:44:55;23.33;62.15
69324;DHT22;56470;47.350;8.718;2023-07-13T13:47:30;23.38;62.33
69324;DHT22;56470;47.350;8.718;2023-07-13T13:49:56;23.45;61.99
69324;DHT22;56470;47.350;8.718;2023-07-13T13:52:21;23.45;61.80
69324;DHT22;56470;47.350;8.718;2023-07-13T13:54:47;23.46;61.63
69324;DHT22;56470;47.350;8.718;2023-07-13T13:57:12;23.53;61.99
69324;DHT22;56470;47.350;8.718;2023-07-13T13:59:38;23.54;62.31
69324;DHT22;56470;47.350;8.718;2023-07-13T14:02:26;23.58;64.10
69324;DHT22;56470;47.350;8.718;2023-07-13T14:05:01;23.61;62.55
69324;DHT22;56470;47.350;8.718;2023-07-13T14:07:26;23.64;61.99
69324;DHT22;56470;47.350;8.718;2023-07-13T14:09:57;23.67;62.19
69324;DHT22;56470;47.350;8.718;2023-07-13T14:12:23;23.70;61.99
69324;DHT22;56470;47.350;8.718;2023-07-13T14:14:51;23.70;62.08
69324;DHT22;56470;47.350;8.718;2023-07-13T14:17:27;23.63;60.19
69324;DHT22;56470;47.350;8.718;2023-07-13T14:19:53;23.68;61.93
69324;DHT22;56470;47.350;8.718;2023-07-13T14:22:25;23.68;61.90
69324;DHT22;56470;47.350;8.718;2023-07-13T14:24:55;23.70;61.75
69324;DHT22;56470;47.350;8.718;2023-07-13T14:27:22;23.68;61.95
69324;DHT22;56470;47.350;8.718;2023-07-13T14:29:47;23.71;61.66
69324;DHT22;56470;47.350;8.718;2023-07-13T14:32:13;23.70;61.22
69324;DHT22;56470;47.350;8.718;2023-07-13T14:34:39;23.71;61.48
69324;DHT22;56470;47.350;8.718;2023-07-13T14:37:04;23.73;61.39
69324;DHT22;56470;47.350;8.718;2023-07-13T14:39:30;23.74;61.08
69324;DHT22;56470;47.350;8.718;2023-07-13T14:41:57;23.73;60.61
69324;DHT22;56470;47.350;8.718;2023-07-13T14:44:28;23.75;59.90
69324;DHT22;56470;47.350;8.718;2023-07-13T14:46:56;23.79;60.11
69324;DHT22;56470;47.350;8.718;2023-07-13T14:49:42;23.77;58.57
69324;DHT22;56470;47.350;8.718;2023-07-13T14:52:19;23.78;59.58
69324;DHT22;56470;47.350;8.718;2023-07-13T14:54:45;23.81;60.40
69324;DHT22;56470;47.350;8.718;2023-07-13T14:57:18;23.82;61.14
69324;DHT22;56470;47.350;8.718;2023-07-13T14:59:44;23.84;60.62
69324;DHT22;56470;47.350;8.718;2023-07-13T15:02:21;23.82;60.77
69324;DHT22;56470;47.350;8.718;2023-07-13T15:04:49;23.78;60.29
69324;DHT22;56470;47.350;8.718;2023-07-13T15:07:14;23.77;60.39
69324;DHT22;56470;47.350;8.718;2023-07-13T15:09:41;23.78;60.92
69324;DHT22;56470;47.350;8.718;2023-07-13T15:12:07;23.78;60.90
69324;DHT22;56470;47.350;8.718;2023-07-13T15:14:32;23.75;61.00
69324;DHT22;56470;47.350;8.718;2023-07-13T15:16:58;23.77;61.05
69324;DHT22;56470;47.350;8.718;2023-07-13T15:19:25;23.77;61.18
69324;DHT22;56470;47.350;8.718;2023-07-13T15:21:51;23.78;60.92
69324;DHT22;56470;47.350;8.718;2023-07-13T15:24:17;23.74;61.03
69324;DHT22;56470;47.350;8.718;2023-07-13T15:26:43;23.75;61.43
69324;DHT22;56470;47.350;8.718;2023-07-13T15:29:11;23.73;60.22
69324;DHT22;56470;47.350;8.718;2023-07-13T15:31:36;23.67;60.00
69324;DHT22;56470;47.350;8.718;2023-07-13T15:34:10;23.71;59.65
69324;DHT22;56470;47.350;8.718;2023-07-13T15:36:36;23.70;59.56
69324;DHT22;56470;47.350;8.718;2023-07-13T15:39:02;23.71;59.29
69324;DHT22;56470;47.350;8.718;2023-07-13T15:41:28;23.75;59.06
69324;DHT22;56470;47.350;8.718;2023-07-13T15:43:55;23.75;58.86
69324;DHT22;56470;47.350;8.718;2023-07-13T15:46:23;23.73;58.90
69324;DHT22;56470;47.350;8.718;2023-07-13T15:48:50;23.70;58.66
69324;DHT22;56470;47.350;8.718;2023-07-13T15:51:24;23.79;58.16
69324;DHT22;56470;47.350;8.718;2023-07-13T15:53:53;23.79;57.93
69324;DHT22;56470;47.350;8.718;2023-07-13T15:56:23;23.77;58.04
69324;DHT22;56470;47.350;8.718;2023-07-13T15:58:50;23.77;57.68
69324;DHT22;56470;47.350;8.718;2023-07-13T16:01:16;23.75;57.25
69324;DHT22;56470;47.350;8.718;2023-07-13T16:03:41;23.77;56.87
69324;DHT22;56470;47.350;8.718;2023-07-13T16:06:19;23.79;57.44
69324;DHT22;56470;47.350;8.718;2023-07-13T16:08:48;23.82;57.21
69324;DHT22;56470;47.350;8.718;2023-07-13T16:11:22;23.82;55.99
69324;DHT22;56470;47.350;8.718;2023-07-13T16:13:50;23.89;57.01
69324;DHT22;56470;47.350;8.718;2023-07-13T16:16:27;23.86;56.42